Hauptseite
METAR-TAF:

METAR-TAF

Flughäfen :

Heeresflugplatz Bückeburg

Bückeburg, Deutschland

Breite: 52-17N, Länge: 009-05E, Höhe: 70 m

Beobachtung

Neuester Wetterbericht von vor 1 Stunde und 19 Minuten, um 17:20 UTC
Wind 8 kt aus Süd
Temperatur 7°C
Luftfeuchtigkeit 66%
Luftdruck 1001 hPa
Sichtweite 10 km oder mehr
Leicht bewölkt in der Höhe von 3000 ft
Aufgelockert bewölkt in der Höhe von 6000 ft

METAR: ETHB 251720Z 18008KT 9999 FEW030 SCT060 07/01 Q1001 BLU+

Zeit: 19:39 (18:39 UTC)


TAF: fehlend

Wetterbeobachtungen und Prognosen von mehr als 4000 Flughäfen (METAR und TAF Bericht).

Die verfügbaren Stationen werden durch gelbe und rote Markierungen auf der Karte dargestellt.

Führen Sie die Maus auf sie, um den Namen der Station zu sehen.

Darauf klicken, um die Beobachtung von Wetterbeobachtungen und Prognosen zu sehen.

Um die Karte zu ändern : klicken Sie auf den grünen Tasten mit einem schwarzen Kreuz Zum Vergrößern, auf den grünen Button mit einem Gedankenstrich zu verkleinern, oder auf die grünen Pfeile für benachbarte Karten.


METAR-TAF: